createdAt,value
2022-08-03T00:02:20.318Z,18.37
2022-08-03T00:04:48.296Z,18.38
2022-08-03T00:07:16.338Z,18.33
2022-08-03T00:09:44.208Z,18.29
2022-08-03T00:12:11.682Z,18.27
2022-08-03T00:14:39.194Z,18.19
2022-08-03T00:17:07.505Z,18.20
2022-08-03T00:19:34.841Z,18.16
2022-08-03T00:22:02.215Z,18.14
2022-08-03T00:24:31.459Z,18.11
2022-08-03T00:26:58.588Z,18.12
2022-08-03T00:29:26.011Z,18.12
2022-08-03T00:31:59.361Z,17.99
2022-08-03T00:34:36.639Z,18.09
2022-08-03T00:37:18.879Z,18.09
2022-08-03T00:39:48.150Z,18.09
2022-08-03T00:42:16.377Z,18.12
2022-08-03T00:44:44.937Z,18.10
2022-08-03T00:47:13.372Z,18.11
2022-08-03T00:49:42.332Z,18.07
2022-08-03T00:52:15.154Z,18.06
2022-08-03T00:54:42.217Z,18.05
2022-08-03T00:57:09.710Z,18.03
2022-08-03T00:59:39.779Z,18.04
2022-08-03T01:02:07.112Z,17.99
2022-08-03T01:04:34.383Z,17.97
2022-08-03T01:07:15.737Z,17.99
2022-08-03T01:10:01.965Z,17.92
2022-08-03T01:12:52.368Z,17.89
2022-08-03T01:15:33.717Z,17.83
2022-08-03T01:18:10.472Z,17.79
2022-08-03T01:20:43.820Z,17.78
2022-08-03T01:23:32.298Z,17.60
2022-08-03T01:26:14.583Z,17.73
2022-08-03T01:28:51.195Z,17.69
2022-08-03T01:31:26.518Z,17.70
2022-08-03T01:33:59.586Z,17.72
2022-08-03T01:36:32.512Z,17.66
2022-08-03T01:39:09.555Z,17.71
2022-08-03T01:41:44.671Z,17.71
2022-08-03T01:44:27.290Z,17.66
2022-08-03T01:47:01.393Z,17.70
2022-08-03T01:49:32.429Z,17.74
2022-08-03T01:52:04.985Z,17.77
2022-08-03T01:54:41.056Z,17.76
2022-08-03T01:57:09.823Z,17.80
2022-08-03T01:59:38.981Z,17.77
2022-08-03T02:02:28.566Z,17.79
2022-08-03T02:04:57.787Z,17.86
2022-08-03T02:07:27.048Z,17.88
2022-08-03T02:09:55.805Z,18.00
2022-08-03T02:12:27.012Z,18.09
2022-08-03T02:15:16.426Z,18.17
2022-08-03T02:17:46.006Z,18.26
2022-08-03T02:20:13.845Z,18.40
2022-08-03T02:22:42.677Z,18.55
2022-08-03T02:25:12.077Z,18.73
2022-08-03T02:27:44.203Z,19.19
2022-08-03T02:30:13.682Z,20.07
2022-08-03T02:32:44.323Z,20.65
2022-08-03T02:35:13.586Z,20.87
2022-08-03T02:37:49.817Z,20.96
2022-08-03T02:40:19.285Z,21.19
2022-08-03T02:42:48.849Z,21.20
2022-08-03T02:45:18.883Z,21.14
2022-08-03T02:47:54.250Z,21.07
2022-08-03T02:50:24.347Z,21.10
2022-08-03T02:52:54.396Z,21.37
2022-08-03T02:55:24.194Z,21.90
2022-08-03T02:57:53.012Z,22.79
2022-08-03T03:00:27.897Z,23.95
2022-08-03T03:03:01.012Z,25.19
2022-08-03T03:05:56.115Z,25.63
2022-08-03T03:08:28.118Z,26.38
2022-08-03T03:11:04.638Z,26.92
2022-08-03T03:13:35.361Z,27.16
2022-08-03T03:16:09.017Z,27.97
2022-08-03T03:18:42.382Z,28.75
2022-08-03T03:21:12.221Z,29.37
2022-08-03T03:23:43.802Z,29.71
2022-08-03T03:26:13.772Z,29.72
2022-08-03T03:28:43.738Z,29.80
2022-08-03T03:31:11.954Z,29.97
2022-08-03T03:33:45.155Z,30.18
2022-08-03T03:36:15.249Z,30.37
2022-08-03T03:38:46.064Z,30.56
2022-08-03T03:41:15.851Z,30.49
2022-08-03T03:49:11.859Z,34.58
2022-08-03T03:51:47.001Z,35.84
2022-08-03T03:59:49.251Z,39.64
2022-08-03T04:05:18.594Z,39.61
2022-08-03T04:08:37.568Z,39.51
2022-08-03T04:11:16.904Z,39.85
2022-08-03T04:14:01.749Z,39.47
2022-08-03T04:16:33.911Z,38.44
2022-08-03T04:19:08.019Z,38.17
2022-08-03T04:21:38.166Z,38.56
2022-08-03T04:24:09.196Z,39.62
2022-08-03T04:26:39.750Z,39.79
2022-08-03T04:29:09.470Z,40.69
2022-08-03T04:31:38.601Z,41.71
2022-08-03T04:34:06.129Z,41.61
2022-08-03T04:36:38.587Z,41.53
2022-08-03T04:39:19.984Z,41.16
2022-08-03T04:42:07.244Z,41.18
2022-08-03T04:44:41.892Z,41.77
2022-08-03T04:47:09.273Z,41.90
2022-08-03T04:49:40.470Z,42.05
2022-08-03T04:52:08.861Z,42.42
2022-08-03T04:54:48.820Z,42.74
2022-08-03T04:57:23.078Z,43.18
2022-08-03T05:00:02.479Z,43.74
2022-08-03T05:02:33.721Z,44.01
2022-08-03T05:05:01.063Z,44.44
2022-08-03T05:07:34.103Z,44.83
2022-08-03T05:10:15.113Z,44.77
2022-08-03T05:12:48.451Z,44.23
2022-08-03T05:15:16.143Z,44.20
2022-08-03T05:17:43.643Z,44.31
2022-08-03T05:20:35.368Z,45.10
2022-08-03T05:23:04.075Z,46.01
2022-08-03T05:25:31.126Z,46.09
2022-08-03T05:27:58.232Z,45.27
2022-08-03T05:30:30.789Z,44.74
2022-08-03T05:33:06.689Z,44.79
2022-08-03T05:36:02.519Z,45.48
2022-08-03T05:38:28.913Z,46.43
2022-08-03T05:41:22.066Z,46.41
2022-08-03T05:43:49.000Z,47.07
2022-08-03T05:46:16.128Z,48.40
2022-08-03T05:48:43.631Z,49.13
2022-08-03T05:51:13.941Z,49.86
2022-08-03T05:53:43.197Z,49.91
2022-08-03T05:56:14.530Z,49.58
2022-08-03T05:58:48.745Z,47.72
2022-08-03T06:01:17.490Z,46.22
2022-08-03T06:03:46.065Z,44.67
2022-08-03T06:06:14.039Z,45.09
2022-08-03T06:08:42.826Z,46.17
2022-08-03T06:11:10.050Z,46.48
2022-08-03T06:13:37.819Z,45.33
2022-08-03T06:16:05.591Z,43.75
2022-08-03T06:18:32.766Z,44.10
2022-08-03T06:21:14.123Z,44.34
2022-08-03T06:23:53.226Z,44.85
2022-08-03T06:26:25.004Z,45.51
2022-08-03T06:28:54.198Z,46.21
2022-08-03T06:31:32.848Z,46.22
2022-08-03T06:34:33.596Z,45.17
2022-08-03T06:36:52.475Z,44.29
2022-08-03T06:39:20.641Z,44.12
2022-08-03T06:41:51.197Z,43.90
2022-08-03T06:44:18.270Z,41.88
2022-08-03T06:46:45.395Z,40.65
2022-08-03T06:49:12.597Z,40.54
2022-08-03T06:52:05.890Z,40.37
2022-08-03T06:54:32.920Z,39.77
2022-08-03T06:57:01.130Z,38.85
2022-08-03T07:00:07.695Z,39.09
2022-08-03T07:02:19.337Z,39.42
2022-08-03T07:04:50.693Z,38.46
2022-08-03T07:07:19.612Z,36.59
2022-08-03T07:09:58.525Z,34.98
2022-08-03T07:12:31.082Z,34.28
2022-08-03T07:15:01.744Z,33.64
2022-08-03T07:17:35.229Z,32.19
2022-08-03T07:20:16.437Z,30.75
2022-08-03T07:22:45.164Z,30.76
2022-08-03T07:25:12.425Z,30.66
2022-08-03T07:27:47.774Z,30.22
2022-08-03T07:30:19.082Z,30.05
2022-08-03T07:32:50.350Z,30.04
2022-08-03T07:35:24.805Z,30.04
2022-08-03T07:37:54.803Z,29.55
2022-08-03T07:40:23.679Z,29.34
2022-08-03T07:42:57.066Z,28.84
2022-08-03T07:45:26.867Z,28.70
2022-08-03T07:47:55.694Z,28.83
2022-08-03T07:50:24.782Z,28.78
2022-08-03T07:52:56.263Z,28.66
2022-08-03T07:55:25.939Z,28.78
2022-08-03T07:58:12.626Z,28.46
2022-08-03T08:00:40.049Z,28.45
2022-08-03T08:03:09.410Z,28.65
2022-08-03T08:05:37.828Z,28.51
2022-08-03T08:08:05.479Z,28.51
2022-08-03T08:10:33.332Z,28.09
2022-08-03T08:13:01.875Z,27.94
2022-08-03T08:15:30.583Z,28.02
2022-08-03T08:18:03.779Z,28.25
2022-08-03T08:20:37.941Z,28.28
2022-08-03T08:23:41.660Z,28.53
2022-08-03T08:26:07.204Z,28.52
2022-08-03T08:28:36.252Z,28.65
2022-08-03T08:31:03.619Z,28.63
2022-08-03T08:34:03.693Z,28.82
2022-08-03T08:36:28.986Z,28.95
2022-08-03T08:38:58.276Z,29.03
2022-08-03T08:41:32.356Z,28.96
2022-08-03T08:44:00.353Z,28.81
2022-08-03T08:46:38.856Z,28.57
2022-08-03T08:49:10.957Z,28.47
2022-08-03T08:51:59.047Z,28.58
2022-08-03T08:54:36.325Z,28.75
2022-08-03T08:57:21.100Z,28.64
2022-08-03T09:00:00.197Z,28.58
2022-08-03T09:02:30.667Z,28.43
2022-08-03T09:05:05.305Z,28.44
2022-08-03T09:07:35.216Z,28.47
2022-08-03T09:10:12.755Z,28.36
2022-08-03T09:12:46.747Z,28.66
2022-08-03T09:15:24.356Z,28.93
2022-08-03T09:18:02.295Z,29.30
2022-08-03T09:20:32.387Z,29.68
2022-08-03T09:23:51.802Z,29.65
2022-08-03T09:26:00.382Z,29.51
2022-08-03T09:29:00.435Z,29.38
2022-08-03T09:31:43.117Z,29.40
2022-08-03T09:34:13.164Z,29.25
2022-08-03T09:36:52.947Z,28.96
2022-08-03T09:42:08.373Z,29.11
2022-08-03T09:44:42.467Z,29.28
2022-08-03T09:47:13.647Z,29.63
2022-08-03T09:49:58.240Z,29.67
2022-08-03T09:52:39.175Z,29.50
2022-08-03T09:56:05.213Z,29.24
2022-08-03T09:58:14.717Z,29.34
2022-08-03T10:01:04.078Z,29.24
2022-08-03T10:04:03.064Z,29.25
2022-08-03T10:06:32.596Z,29.23
2022-08-03T10:11:55.107Z,28.93
2022-08-03T10:14:23.756Z,28.88
2022-08-03T10:16:51.804Z,29.00
2022-08-03T10:19:20.575Z,29.02
2022-08-03T10:21:55.787Z,28.91
2022-08-03T10:24:30.990Z,28.75
2022-08-03T10:27:12.698Z,28.84
2022-08-03T10:29:51.818Z,28.77
2022-08-03T10:32:37.476Z,28.96
2022-08-03T10:35:23.640Z,29.24
2022-08-03T10:38:27.316Z,29.40
2022-08-03T10:40:59.124Z,29.40
2022-08-03T10:43:33.902Z,29.36
2022-08-03T10:46:04.252Z,29.59
2022-08-03T10:48:34.125Z,29.83
2022-08-03T10:51:07.025Z,29.86
2022-08-03T10:53:38.079Z,29.76
2022-08-03T10:56:44.357Z,29.65
2022-08-03T10:59:12.219Z,29.51
2022-08-03T11:01:59.945Z,29.49
2022-08-03T11:04:30.322Z,29.46
2022-08-03T11:07:22.781Z,29.31
2022-08-03T11:09:52.692Z,29.08
2022-08-03T11:12:21.690Z,29.03
2022-08-03T11:15:00.375Z,28.91
2022-08-03T11:17:27.658Z,28.90
2022-08-03T11:19:57.736Z,29.03
2022-08-03T11:22:26.100Z,29.19
2022-08-03T11:24:57.378Z,29.52
2022-08-03T11:27:32.254Z,29.69
2022-08-03T11:30:11.774Z,29.99
2022-08-03T11:32:40.249Z,30.11
2022-08-03T11:35:17.826Z,30.20
2022-08-03T11:38:03.361Z,30.41
2022-08-03T11:40:41.697Z,30.36
2022-08-03T11:43:30.426Z,30.37
2022-08-03T11:46:06.625Z,30.50
2022-08-03T11:48:51.032Z,30.58
2022-08-03T11:51:24.332Z,30.60
2022-08-03T11:54:03.948Z,30.79
2022-08-03T11:56:51.519Z,30.96
2022-08-03T11:59:22.165Z,31.02
2022-08-03T12:01:50.062Z,31.03
2022-08-03T12:04:17.291Z,31.07
2022-08-03T12:07:01.513Z,31.21
2022-08-03T12:09:29.707Z,31.11
2022-08-03T12:12:00.581Z,31.15
2022-08-03T12:14:48.791Z,30.95
2022-08-03T12:17:19.547Z,30.78
2022-08-03T12:19:46.810Z,30.71
2022-08-03T12:22:14.127Z,30.73
2022-08-03T12:24:46.909Z,30.72
2022-08-03T12:27:24.221Z,30.71
2022-08-03T12:29:58.507Z,30.75
2022-08-03T12:32:28.451Z,30.83
2022-08-03T12:35:01.916Z,30.90
2022-08-03T12:37:31.379Z,30.91
2022-08-03T12:40:09.763Z,30.86
2022-08-03T12:42:40.066Z,30.74
2022-08-03T12:45:27.897Z,30.64
2022-08-03T12:48:02.293Z,30.54
2022-08-03T12:50:31.378Z,30.53
2022-08-03T12:53:01.741Z,30.45
2022-08-03T12:55:57.184Z,30.37
2022-08-03T12:58:34.320Z,30.17
2022-08-03T13:01:10.041Z,30.00
2022-08-03T13:03:50.286Z,29.95
2022-08-03T13:06:26.043Z,29.94
2022-08-03T13:09:05.611Z,29.93
2022-08-03T13:11:55.868Z,29.91
2022-08-03T13:14:20.754Z,29.87
2022-08-03T13:16:49.331Z,29.84
2022-08-03T13:19:16.678Z,29.83
2022-08-03T13:22:01.851Z,29.83
2022-08-03T13:24:33.075Z,29.85
2022-08-03T13:27:00.748Z,29.91
2022-08-03T13:29:47.919Z,29.94
2022-08-03T13:32:15.018Z,30.02
2022-08-03T13:34:42.183Z,30.10
2022-08-03T13:37:10.271Z,30.21
2022-08-03T13:39:57.205Z,30.32
2022-08-03T13:42:25.289Z,30.33
2022-08-03T13:44:52.490Z,30.38
2022-08-03T13:47:20.459Z,30.42
2022-08-03T13:49:59.492Z,30.45
2022-08-03T13:52:28.382Z,30.38
2022-08-03T13:54:55.472Z,30.38
2022-08-03T13:58:02.871Z,30.41
2022-08-03T14:00:10.500Z,30.41
2022-08-03T14:02:38.595Z,30.39
2022-08-03T14:05:06.151Z,30.42
2022-08-03T14:07:33.329Z,30.53
2022-08-03T14:10:02.051Z,30.53
2022-08-03T14:12:30.636Z,30.54
2022-08-03T14:14:59.742Z,30.60
2022-08-03T14:17:42.039Z,30.60
2022-08-03T14:20:36.609Z,30.50
2022-08-03T14:23:03.903Z,30.18
2022-08-03T14:25:43.109Z,30.18
2022-08-03T14:28:19.307Z,30.21
2022-08-03T14:30:46.398Z,30.15
2022-08-03T14:33:13.685Z,29.92
2022-08-03T14:35:41.004Z,29.65
2022-08-03T14:38:08.258Z,29.41
2022-08-03T14:40:35.330Z,29.40
2022-08-03T14:43:02.728Z,29.33
2022-08-03T14:45:29.891Z,29.24
2022-08-03T14:50:28.571Z,29.07
2022-08-03T14:50:50.185Z,29.06
2022-08-03T14:53:18.364Z,29.15
2022-08-03T14:55:50.846Z,29.08
2022-08-03T14:58:23.370Z,29.08
2022-08-03T15:00:52.146Z,29.07
2022-08-03T15:03:23.826Z,28.87
2022-08-03T15:05:56.344Z,28.77
2022-08-03T15:08:23.988Z,28.69
2022-08-03T15:10:51.302Z,28.59
2022-08-03T15:13:19.693Z,28.52
2022-08-03T15:15:48.043Z,28.49
2022-08-03T15:18:15.421Z,28.34
2022-08-03T15:20:45.384Z,28.27
2022-08-03T15:23:14.464Z,28.13
2022-08-03T15:26:32.242Z,28.03
2022-08-03T15:28:30.324Z,27.90
2022-08-03T15:30:57.404Z,27.80
2022-08-03T15:33:24.598Z,27.69
2022-08-03T15:35:52.145Z,27.69
2022-08-03T15:38:19.939Z,27.68
2022-08-03T15:40:46.987Z,27.65
2022-08-03T15:43:14.217Z,27.65
2022-08-03T15:45:43.050Z,27.67
2022-08-03T15:48:10.052Z,27.63
2022-08-03T15:50:37.185Z,27.63
2022-08-03T15:53:04.928Z,27.65
2022-08-03T15:55:32.281Z,27.59
2022-08-03T15:59:09.157Z,27.51
2022-08-03T16:00:46.944Z,27.41
2022-08-03T16:03:14.073Z,27.29
2022-08-03T16:05:44.717Z,27.18
2022-08-03T16:08:13.864Z,27.09
2022-08-03T16:10:43.262Z,26.97
2022-08-03T16:13:10.377Z,26.84
2022-08-03T16:15:39.042Z,26.76
2022-08-03T16:18:07.505Z,26.64
2022-08-03T16:20:35.308Z,26.53
2022-08-03T16:23:11.072Z,26.40
2022-08-03T16:25:40.804Z,26.31
2022-08-03T16:28:13.404Z,26.16
2022-08-03T16:30:43.927Z,26.04
2022-08-03T16:33:16.722Z,25.96
2022-08-03T16:35:46.605Z,25.83
2022-08-03T16:38:18.613Z,25.74
2022-08-03T16:40:51.814Z,25.66
2022-08-03T16:43:22.410Z,25.59
2022-08-03T16:45:49.916Z,25.50
2022-08-03T16:48:18.814Z,25.40
2022-08-03T16:50:46.420Z,25.36
2022-08-03T16:53:16.788Z,25.26
2022-08-03T16:55:51.867Z,25.18
2022-08-03T16:58:41.582Z,25.09
2022-08-03T17:01:23.581Z,24.99
2022-08-03T17:04:03.309Z,24.85
2022-08-03T17:06:44.676Z,24.78
2022-08-03T17:09:15.587Z,24.63
2022-08-03T17:11:48.796Z,24.55
2022-08-03T17:14:21.902Z,24.42
2022-08-03T17:16:54.256Z,24.32
2022-08-03T17:19:24.526Z,24.24
2022-08-03T17:22:10.616Z,24.24
2022-08-03T17:24:45.991Z,24.14
2022-08-03T17:28:49.606Z,24.06
2022-08-03T17:30:11.889Z,24.03
2022-08-03T17:32:52.482Z,24.01
2022-08-03T17:35:36.922Z,23.98
2022-08-03T17:38:12.014Z,24.03
2022-08-03T17:40:47.935Z,24.02
2022-08-03T17:44:14.474Z,24.00
2022-08-03T17:46:11.142Z,24.08
2022-08-03T17:48:41.347Z,24.05
2022-08-03T17:51:31.868Z,24.07
2022-08-03T17:54:18.011Z,24.02
2022-08-03T17:56:48.498Z,24.00
2022-08-03T17:59:52.758Z,24.00
2022-08-03T18:03:13.089Z,23.97
2022-08-03T18:06:11.342Z,23.92
2022-08-03T18:08:34.189Z,23.87
2022-08-03T18:11:14.249Z,23.90
2022-08-03T18:13:53.515Z,23.82
2022-08-03T18:16:33.517Z,23.89
2022-08-03T18:19:09.378Z,23.90
2022-08-03T18:22:03.740Z,23.90
2022-08-03T18:24:30.797Z,23.80
2022-08-03T18:26:59.789Z,23.86
2022-08-03T18:29:31.203Z,23.81
2022-08-03T18:32:03.201Z,23.78
2022-08-03T18:34:34.601Z,23.77
2022-08-03T18:37:07.507Z,23.75
2022-08-03T18:39:57.896Z,23.72
2022-08-03T18:42:26.936Z,23.79
2022-08-03T18:44:56.373Z,23.79
2022-08-03T18:47:57.936Z,23.83
2022-08-03T18:50:34.855Z,23.79
2022-08-03T18:53:21.778Z,23.83
2022-08-03T18:56:15.837Z,23.87
2022-08-03T18:59:02.544Z,23.84
2022-08-03T19:02:00.418Z,23.87
2022-08-03T19:04:36.655Z,23.85
2022-08-03T19:07:09.066Z,23.86
2022-08-03T19:09:46.955Z,23.85
2022-08-03T19:12:28.275Z,23.82
2022-08-03T19:15:05.569Z,23.83
2022-08-03T19:17:53.334Z,23.81
2022-08-03T19:20:26.710Z,23.82
2022-08-03T19:22:56.872Z,23.80
2022-08-03T19:25:34.925Z,23.75
2022-08-03T19:28:05.826Z,23.67
2022-08-03T19:30:40.269Z,23.59
2022-08-03T19:33:13.220Z,23.41
2022-08-03T19:35:52.159Z,23.25
2022-08-03T19:38:28.224Z,23.09
2022-08-03T19:40:59.810Z,23.00
2022-08-03T19:43:52.714Z,22.85
2022-08-03T19:46:30.459Z,22.69
2022-08-03T19:49:10.453Z,22.64
2022-08-03T19:52:02.346Z,22.49
2022-08-03T19:54:53.840Z,22.40
2022-08-03T19:57:25.004Z,22.26
2022-08-03T19:59:53.638Z,22.22
2022-08-03T20:02:26.802Z,22.09
2022-08-03T20:04:57.205Z,22.01
2022-08-03T20:07:26.237Z,21.92
2022-08-03T20:09:56.692Z,21.77
2022-08-03T20:12:29.556Z,21.74
2022-08-03T20:14:57.490Z,21.60
2022-08-03T20:17:55.254Z,21.47
2022-08-03T20:20:13.816Z,21.41
2022-08-03T20:22:45.656Z,21.42
2022-08-03T20:25:20.931Z,21.34
2022-08-03T20:28:07.024Z,21.26
2022-08-03T20:30:36.134Z,21.27
2022-08-03T20:33:04.609Z,21.27
2022-08-03T20:35:33.499Z,21.21
2022-08-03T20:38:00.576Z,21.20
2022-08-03T20:40:27.762Z,21.13
2022-08-03T20:42:56.175Z,21.10
2022-08-03T20:45:59.014Z,21.05
2022-08-03T20:48:10.973Z,21.01
2022-08-03T20:50:41.573Z,21.00
2022-08-03T20:53:12.131Z,20.91
2022-08-03T20:55:48.146Z,20.96
2022-08-03T20:58:27.268Z,20.87
2022-08-03T21:00:56.931Z,20.78
2022-08-03T21:03:26.089Z,20.62
2022-08-03T21:06:12.464Z,20.57
2022-08-03T21:08:46.895Z,20.56
2022-08-03T21:11:19.587Z,20.52
2022-08-03T21:13:55.514Z,20.44
2022-08-03T21:16:27.113Z,20.45
2022-08-03T21:18:55.685Z,20.37
2022-08-03T21:21:23.803Z,20.20
2022-08-03T21:23:54.652Z,20.14
2022-08-03T21:26:24.928Z,20.13
2022-08-03T21:28:54.129Z,19.93
2022-08-03T21:31:25.402Z,19.97
2022-08-03T21:33:59.594Z,19.90
2022-08-03T21:36:28.656Z,19.79
2022-08-03T21:38:57.510Z,19.76
2022-08-03T21:41:30.651Z,19.70
2022-08-03T21:43:58.251Z,19.64
2022-08-03T21:46:27.240Z,19.48
2022-08-03T21:50:05.405Z,19.36
2022-08-03T21:51:49.990Z,19.28
2022-08-03T21:54:20.219Z,19.18
2022-08-03T21:56:51.646Z,19.14
2022-08-03T21:59:20.378Z,19.06
2022-08-03T22:01:51.277Z,18.93
2022-08-03T22:04:50.204Z,18.90
2022-08-03T22:07:10.229Z,18.84
2022-08-03T22:09:37.645Z,18.76
2022-08-03T22:12:05.246Z,18.65
2022-08-03T22:14:35.620Z,18.61
2022-08-03T22:17:07.220Z,18.55
2022-08-03T22:19:35.244Z,18.49
2022-08-03T22:22:06.696Z,18.46
2022-08-03T22:24:36.728Z,18.47
2022-08-03T22:27:24.370Z,18.44
2022-08-03T22:29:53.440Z,18.49
2022-08-03T22:32:24.177Z,18.46
2022-08-03T22:34:54.512Z,18.43
2022-08-03T22:37:26.418Z,18.36
2022-08-03T22:39:53.787Z,18.22
2022-08-03T22:42:22.451Z,18.20
2022-08-03T22:44:52.693Z,18.20
2022-08-03T22:47:22.750Z,18.06
2022-08-03T22:50:31.672Z,18.18
2022-08-03T22:52:42.069Z,18.10
2022-08-03T22:55:18.853Z,18.02
2022-08-03T22:57:55.915Z,18.06
2022-08-03T23:00:24.571Z,18.12
2022-08-03T23:02:54.984Z,18.15
2022-08-03T23:06:02.509Z,18.14
2022-08-03T23:08:18.981Z,18.04
2022-08-03T23:10:49.031Z,18.22
2022-08-03T23:13:26.430Z,18.29
2022-08-03T23:15:58.787Z,18.25
2022-08-03T23:18:32.961Z,18.20
2022-08-03T23:21:10.967Z,18.21
2022-08-03T23:23:44.654Z,18.20
2022-08-03T23:26:13.714Z,18.17
2022-08-03T23:28:45.418Z,18.18
2022-08-03T23:31:14.248Z,18.13
2022-08-03T23:33:45.067Z,18.10
2022-08-03T23:36:31.313Z,18.05
2022-08-03T23:39:02.325Z,18.16
2022-08-03T23:41:32.132Z,18.25
2022-08-03T23:44:03.759Z,18.29
2022-08-03T23:46:31.198Z,18.26
2022-08-03T23:48:59.936Z,18.24
2022-08-03T23:51:36.447Z,18.26
2022-08-03T23:54:19.755Z,18.22
2022-08-03T23:56:52.696Z,18.27
2022-08-03T23:59:58.874Z,18.27
